Terminal Aerodrome Forecast
Issued by NWS Charleston, WV

Current Version | Previous Version | Text Only | Print | Product List | Glossary Off
Versions: 1 2 3 4 5 6 7 8 9 10 11 12 13 14 15 16 17 18 19 20 21 22 23 24 25

000
FTUS41 KRLX 270300 AAA
TAFHTS
TAF AMD
KHTS 270328Z 2703/2724 30008KT 6SM BR OVC022
     FM271000 33004KT P6SM BKN015
     FM271600 32005KT 6SM BR BKN010=

USA.gov is the U.S. government's official web portal to all federal, state and local government web resources and services.